Accueil
METAR-TAF:

METAR-TAF

Aéroports :

Aéroport de Londres-City

Londres, Angleterre

latitude: 51-30N, longitude: 000-03E, altitude: 5 m

Observation

Le bulletin a été fait il y a 35 minutes, à 14:50 UTC
Vent 7 kt de ouest
Température 6°C
Humidité 75%
Pression 1037 hPa
Visibilité 10 km ou plus
Ciel couvert à une hauteur de 1800 ft

METAR: EGLC 221450Z AUTO 28007KT 9999 OVC018 06/02 Q1037

Heure: 15:25 (15:25 UTC)

Prévision

Le bulletin a été fait il y a 7 heures et 25 minutes, à 08:00 UTC
Prévision valable du 22 à 09 UTC au 22 à 18 UTC
Vent 4 kt de ouest/nord-ouest
Visibilité 10 km ou plus
Nuages fragmentés à une hauteur de 2000 ft
Probabilité 30% :
Temporairement
du 22 à 09 UTC au 22 à 13 UTC
Nuages fragmentés à une hauteur de 700 ft

TAF: EGLC 220800Z 2209/2218 29004KT 9999 BKN020 PROB30 TEMPO 2209/2213 BKN007

Observations et prévisions météorologiques de plus de 4000 aéroports (messages METAR et TAF).

Les stations disponibles sont représentées par des disques jaunes et rouges sur la carte.

Passer la souris dessus pour voir le nom de la station.

Cliquer dessus pour voir les observations et prévisions météorologiques.

Pour changer de carte: cliquez sur les boutons verts avec une croix noire pour zoomer, sur le bouton vert avec un tiret pour effectuer un zoom arrière, ou sur les flèches vertes pour les cartes adjacentes.


METAR-TAF: